createdAt,value
2022-08-07T00:00:53.386Z,16.21
2022-08-07T00:05:06.480Z,16.21
2022-08-07T00:09:21.237Z,16.18
2022-08-07T00:13:34.898Z,16.14
2022-08-07T00:17:52.245Z,16.11
2022-08-07T00:22:04.448Z,16.02
2022-08-07T00:26:31.203Z,16.02
2022-08-07T00:30:48.075Z,15.97
2022-08-07T00:35:00.715Z,15.92
2022-08-07T00:39:17.035Z,15.92
2022-08-07T00:44:00.496Z,15.84
2022-08-07T00:48:18.260Z,15.78
2022-08-07T00:52:33.254Z,15.75
2022-08-07T00:56:49.887Z,15.68
2022-08-07T01:01:01.883Z,15.61
2022-08-07T01:05:19.458Z,15.57
2022-08-07T01:10:03.903Z,15.54
2022-08-07T01:14:04.895Z,15.51
2022-08-07T01:18:18.016Z,15.44
2022-08-07T01:22:32.486Z,15.32
2022-08-07T01:26:44.502Z,15.27
2022-08-07T01:31:04.930Z,15.20
2022-08-07T01:35:20.631Z,15.17
2022-08-07T01:39:40.521Z,15.12
2022-08-07T01:44:06.822Z,15.00
2022-08-07T01:48:30.277Z,14.92
2022-08-07T01:52:49.618Z,14.85
2022-08-07T01:57:24.529Z,14.78
2022-08-07T02:02:02.054Z,14.72
2022-08-07T02:06:32.193Z,14.71
2022-08-07T02:10:55.429Z,14.67
2022-08-07T02:15:12.549Z,14.65
2022-08-07T02:20:07.846Z,14.58
2022-08-07T02:24:00.169Z,14.53
2022-08-07T02:28:25.436Z,14.48
2022-08-07T02:33:03.797Z,14.47
2022-08-07T02:37:15.734Z,14.36
2022-08-07T02:41:33.446Z,14.27
2022-08-07T02:45:58.069Z,14.26
2022-08-07T02:50:14.520Z,14.23
2022-08-07T02:54:28.958Z,14.17
2022-08-07T02:58:47.165Z,14.13
2022-08-07T03:03:05.893Z,14.11
2022-08-07T03:07:21.522Z,14.04
2022-08-07T03:11:57.802Z,14.02
2022-08-07T03:16:14.574Z,13.99
2022-08-07T03:20:27.491Z,13.91
2022-08-07T03:24:40.005Z,13.95
2022-08-07T03:29:00.506Z,13.94
2022-08-07T03:33:14.800Z,13.96
2022-08-07T03:37:29.978Z,13.97
2022-08-07T03:41:47.730Z,14.00
2022-08-07T03:46:10.398Z,14.04
2022-08-07T03:50:25.087Z,14.07
2022-08-07T03:54:54.414Z,14.09
2022-08-07T03:59:13.322Z,14.12
2022-08-07T04:03:49.954Z,14.11
2022-08-07T04:08:05.297Z,14.10
2022-08-07T04:12:26.679Z,14.11
2022-08-07T04:16:43.108Z,14.11
2022-08-07T04:21:10.374Z,14.13
2022-08-07T04:25:23.953Z,14.17
2022-08-07T04:29:58.663Z,14.17
2022-08-07T04:34:27.363Z,14.20
2022-08-07T04:38:45.663Z,14.24
2022-08-07T04:43:02.078Z,14.27
2022-08-07T04:48:00.915Z,14.29
2022-08-07T04:52:51.381Z,14.40
2022-08-07T04:58:29.219Z,14.43
2022-08-07T05:02:26.874Z,14.77
2022-08-07T05:07:01.136Z,16.38
2022-08-07T05:11:58.229Z,18.03
2022-08-07T05:16:18.487Z,19.38
2022-08-07T05:20:45.063Z,20.41
2022-08-07T05:25:00.458Z,21.19
2022-08-07T05:29:16.657Z,21.97
2022-08-07T05:33:31.475Z,22.63
2022-08-07T05:38:09.101Z,23.24
2022-08-07T05:42:33.317Z,23.97
2022-08-07T05:46:51.112Z,24.66
2022-08-07T05:51:09.892Z,25.21
2022-08-07T05:55:21.851Z,25.71
2022-08-07T05:59:47.250Z,26.10
2022-08-07T06:04:11.029Z,26.53
2022-08-07T06:08:30.957Z,27.02
2022-08-07T06:12:44.278Z,27.43
2022-08-07T06:16:57.277Z,27.84
2022-08-07T06:22:16.437Z,28.33
2022-08-07T06:25:54.423Z,28.70
2022-08-07T06:30:24.064Z,29.26
2022-08-07T06:34:45.236Z,29.56
2022-08-07T06:40:13.563Z,29.98
2022-08-07T06:43:39.549Z,30.36
2022-08-07T06:47:59.212Z,30.59
2022-08-07T06:52:17.870Z,31.04
2022-08-07T06:56:50.642Z,31.53
2022-08-07T07:01:17.290Z,31.77
2022-08-07T07:06:04.110Z,31.77
2022-08-07T07:10:01.201Z,32.09
2022-08-07T07:14:18.066Z,32.60
2022-08-07T07:18:48.212Z,32.78
2022-08-07T07:24:09.458Z,32.92
2022-08-07T07:27:55.637Z,33.17
2022-08-07T07:32:11.234Z,33.44
2022-08-07T07:36:24.985Z,33.83
2022-08-07T07:40:45.081Z,34.07
2022-08-07T07:45:01.578Z,34.16
2022-08-07T07:50:36.040Z,34.32
2022-08-07T07:53:52.828Z,34.44
2022-08-07T07:58:06.496Z,34.47
2022-08-07T08:02:33.718Z,34.55
2022-08-07T08:06:52.072Z,33.44
2022-08-07T08:11:07.978Z,33.67
2022-08-07T08:15:23.190Z,34.41
2022-08-07T08:20:17.469Z,34.63
2022-08-07T08:24:36.207Z,34.73
2022-08-07T08:28:59.250Z,34.43
2022-08-07T08:33:16.999Z,35.25
2022-08-07T08:38:00.861Z,35.54
2022-08-07T08:42:06.000Z,35.83
2022-08-07T08:46:38.215Z,36.24
2022-08-07T08:51:14.292Z,36.55
2022-08-07T08:55:55.515Z,36.65
2022-08-07T09:00:12.022Z,36.89
2022-08-07T09:04:43.241Z,37.02
2022-08-07T09:09:36.489Z,36.90
2022-08-07T09:13:57.786Z,36.92
2022-08-07T09:18:53.415Z,37.09
2022-08-07T09:24:32.871Z,36.98
2022-08-07T09:30:05.359Z,36.90
2022-08-07T09:33:41.076Z,37.22
2022-08-07T09:37:54.670Z,37.65
2022-08-07T09:42:33.637Z,37.70
2022-08-07T09:47:49.517Z,37.51
2022-08-07T09:52:15.997Z,37.89
2022-08-07T09:56:54.780Z,37.34
2022-08-07T10:01:52.375Z,37.36
2022-08-07T10:06:24.520Z,37.02
2022-08-07T10:12:00.075Z,36.22
2022-08-07T10:15:28.351Z,36.50
2022-08-07T10:20:04.065Z,36.63
2022-08-07T10:24:33.272Z,37.34
2022-08-07T10:29:17.001Z,36.98
2022-08-07T10:34:17.786Z,37.48
2022-08-07T10:38:42.308Z,37.97
2022-08-07T10:43:34.464Z,37.74
2022-08-07T10:48:03.881Z,38.18
2022-08-07T10:52:33.837Z,38.35
2022-08-07T10:57:33.860Z,38.21
2022-08-07T11:02:33.012Z,38.14
2022-08-07T11:07:24.710Z,37.82
2022-08-07T11:12:18.993Z,36.91
2022-08-07T11:16:54.609Z,36.63
2022-08-07T11:21:27.793Z,36.26
2022-08-07T11:25:51.728Z,36.89
2022-08-07T11:30:17.877Z,37.11
2022-08-07T11:35:09.317Z,37.18
2022-08-07T11:40:00.924Z,37.17
2022-08-07T11:44:25.060Z,37.35
2022-08-07T11:49:27.717Z,36.92
2022-08-07T11:54:01.897Z,36.48
2022-08-07T11:58:33.121Z,35.51
2022-08-07T12:02:52.489Z,34.56
2022-08-07T12:07:39.241Z,34.55
2022-08-07T12:12:10.503Z,35.24
2022-08-07T12:16:30.282Z,35.64
2022-08-07T12:20:58.298Z,35.38
2022-08-07T12:26:21.572Z,34.48
2022-08-07T12:30:31.996Z,33.99
2022-08-07T12:34:49.368Z,33.63
2022-08-07T12:39:42.487Z,33.26
2022-08-07T12:44:02.255Z,32.93
2022-08-07T12:48:41.514Z,32.79
2022-08-07T12:54:24.098Z,32.81
2022-08-07T12:58:07.740Z,32.72
2022-08-07T13:03:13.072Z,32.60
2022-08-07T13:08:13.559Z,32.18
2022-08-07T13:13:03.363Z,32.18
2022-08-07T13:17:41.037Z,32.16
2022-08-07T13:22:19.845Z,31.81
2022-08-07T13:26:46.214Z,31.48
2022-08-07T13:31:14.602Z,31.54
2022-08-07T13:36:00.605Z,31.60
2022-08-07T13:40:35.354Z,31.48
2022-08-07T13:46:06.959Z,31.20
2022-08-07T13:50:34.652Z,31.19
2022-08-07T13:54:16.584Z,31.35
2022-08-07T13:59:00.072Z,31.46
2022-08-07T14:03:15.699Z,31.52
2022-08-07T14:07:59.462Z,31.56
2022-08-07T14:12:54.162Z,31.12
2022-08-07T14:17:13.073Z,31.08
2022-08-07T14:22:02.487Z,31.11
2022-08-07T14:26:32.020Z,31.07
2022-08-07T14:30:51.879Z,30.89
2022-08-07T14:35:05.401Z,30.75
2022-08-07T14:40:17.991Z,30.67
2022-08-07T14:44:02.099Z,30.59
2022-08-07T14:48:33.305Z,30.46
2022-08-07T14:57:03.472Z,30.02
2022-08-07T15:01:21.917Z,29.86
2022-08-07T15:05:34.955Z,30.00
2022-08-07T15:14:30.410Z,29.84
2022-08-07T15:18:48.580Z,29.30
2022-08-07T15:23:20.108Z,29.10
2022-08-07T15:27:34.572Z,28.81
2022-08-07T15:32:01.595Z,28.85
2022-08-07T15:37:02.812Z,28.71
2022-08-07T15:41:22.932Z,28.42
2022-08-07T15:45:55.716Z,28.36
2022-08-07T15:50:12.460Z,28.26
2022-08-07T15:54:47.611Z,28.08
2022-08-07T15:59:16.468Z,27.95
2022-08-07T16:03:47.242Z,27.94
2022-08-07T16:51:54.421Z,26.95
2022-08-07T17:02:54.099Z,26.42
2022-08-07T17:07:28.382Z,26.45
2022-08-07T17:12:34.344Z,26.31
2022-08-07T17:16:55.786Z,26.11
2022-08-07T17:21:22.912Z,25.94
2022-08-07T17:25:52.789Z,25.86
2022-08-07T17:30:15.817Z,25.79
2022-08-07T17:35:32.922Z,25.66
2022-08-07T17:39:23.004Z,25.47
2022-08-07T17:44:05.700Z,25.27
2022-08-07T17:48:34.218Z,25.16
2022-08-07T17:53:07.386Z,25.00
2022-08-07T17:57:25.208Z,24.87
2022-08-07T18:02:26.056Z,24.74
2022-08-07T18:07:19.430Z,24.59
2022-08-07T18:12:08.336Z,24.49
2022-08-07T18:16:33.006Z,24.34
2022-08-07T18:21:41.443Z,24.24
2022-08-07T18:25:40.410Z,24.19
2022-08-07T18:30:32.503Z,24.06
2022-08-07T18:35:08.034Z,23.99
2022-08-07T18:40:06.709Z,23.92
2022-08-07T18:45:40.054Z,23.87
2022-08-07T18:50:32.731Z,23.72
2022-08-07T18:54:04.254Z,23.58
2022-08-07T18:58:53.445Z,23.51
2022-08-07T19:03:37.980Z,23.39
2022-08-07T19:08:03.784Z,23.17
2022-08-07T19:12:20.775Z,23.05
2022-08-07T19:17:08.206Z,22.94
2022-08-07T19:21:44.245Z,22.89
2022-08-07T19:30:58.781Z,22.42
2022-08-07T19:35:16.619Z,22.26
2022-08-07T19:39:56.751Z,22.15
2022-08-07T19:44:21.232Z,22.07
2022-08-07T19:48:53.637Z,22.01
2022-08-07T19:54:33.549Z,21.93
2022-08-07T19:58:12.172Z,21.82
2022-08-07T20:02:35.288Z,21.65
2022-08-07T20:06:54.123Z,21.51
2022-08-07T20:11:15.170Z,21.41
2022-08-07T20:15:46.760Z,21.32
2022-08-07T20:20:04.630Z,21.19
2022-08-07T20:24:30.074Z,21.14
2022-08-07T20:28:44.516Z,21.01
2022-08-07T20:32:59.720Z,20.89
2022-08-07T20:37:15.261Z,20.74
2022-08-07T20:41:34.241Z,20.63
2022-08-07T20:46:26.657Z,20.48
2022-08-07T20:50:26.447Z,20.42
2022-08-07T20:54:38.124Z,20.33
2022-08-07T20:59:02.649Z,20.19
2022-08-07T21:03:25.653Z,20.13
2022-08-07T21:08:05.370Z,20.06
2022-08-07T21:12:25.991Z,19.91
2022-08-07T21:17:06.490Z,19.87
2022-08-07T21:21:21.506Z,19.75
2022-08-07T21:26:03.244Z,19.68
2022-08-07T21:30:18.090Z,19.57
2022-08-07T21:34:48.634Z,19.48
2022-08-07T21:39:46.669Z,19.42
2022-08-07T21:44:14.720Z,19.44
2022-08-07T21:49:14.480Z,19.31
2022-08-07T21:53:52.516Z,19.23
2022-08-07T21:58:32.168Z,19.15
2022-08-07T22:03:10.363Z,19.04
2022-08-07T22:07:59.004Z,18.96
2022-08-07T22:12:14.182Z,18.94
2022-08-07T22:16:46.870Z,18.88
2022-08-07T22:21:19.264Z,18.83
2022-08-07T22:25:36.929Z,18.77
2022-08-07T22:29:55.575Z,18.69
2022-08-07T22:34:15.395Z,18.61
2022-08-07T22:38:35.884Z,18.60
2022-08-07T22:42:50.412Z,18.55
2022-08-07T22:47:29.917Z,18.46
2022-08-07T22:52:01.420Z,18.42
2022-08-07T22:56:22.112Z,18.36
2022-08-07T23:00:57.711Z,18.31
2022-08-07T23:06:08.567Z,18.26
2022-08-07T23:10:37.405Z,18.26
2022-08-07T23:14:58.565Z,18.21
2022-08-07T23:20:03.677Z,18.22
2022-08-07T23:24:47.945Z,18.12
2022-08-07T23:28:59.525Z,18.07
2022-08-07T23:34:33.672Z,18.12
2022-08-07T23:38:19.169Z,17.96
2022-08-07T23:43:16.946Z,17.97
2022-08-07T23:47:42.146Z,17.89
2022-08-07T23:52:58.287Z,17.83
2022-08-07T23:57:04.478Z,17.74
